Open Full Screen Window  High Contrast Mode
Wind Gusting 18 knots
12
November 21, 2017 1:53 PM EST
Weather Information
Wind Direction
  250 °
Wind Speed
  12 kt (14 mph)
Wind Gust
  18 kt (21 mph)
Altimeter
29.69 in
Visibility
10 SM
Temperature
08° C
46° F
Dewpoint
00° C
32° F
Humidity
57%
1hr Rain Fall
00.00 in.
24hr Rain Fall
00.00 in.
Sky Condition
Overcast @ 6,500 ft
VFR

METAR KIKW 211853Z AUTO 25012G18KT 10SM OVC065 08/00 A2969 RMK AO2 T00750002

*Background is not an actual portrayal of the airport.